Time;durP1;ratioP1;P1;durP2;ratioP2;P2;SDS_P1;SDS_P2;PMS_P1;PMS_P2;Temp;Humidity;BMP_temperature;BMP_pressure;BME280_temperature;BME280_humidity;BME280_pressure;Samples;Min_cycle;Max_cycle;Signal;HPM_P1;HPM_P2
2023/12/05 00:00:45;;;;;;;1.60;1.40;;;3.50;98.20;;;;;;5064477;28;21033;-83
2023/12/05 00:03:12;;;;;;;1.60;1.40;;;3.50;98.20;;;;;;5075051;28;20566;-83
2023/12/05 00:05:41;;;;;;;1.63;1.40;;;3.50;98.20;;;;;;5057858;28;20486;-83
2023/12/05 00:08:09;;;;;;;1.60;1.40;;;3.50;98.20;;;;;;5071288;28;20475;-83
2023/12/05 00:10:39;;;;;;;1.70;1.50;;;3.50;98.20;;;;;;5071692;28;20467;-83
2023/12/05 00:13:07;;;;;;;1.67;1.40;;;3.50;98.20;;;;;;5082671;28;20480;-83
2023/12/05 00:15:34;;;;;;;1.70;1.40;;;3.50;98.20;;;;;;5066830;28;20517;-82
2023/12/05 00:18:10;;;;;;;1.60;1.40;;;3.50;98.20;;;;;;5089464;28;21077;-83
2023/12/05 00:20:37;;;;;;;1.60;1.30;;;3.60;98.20;;;;;;5070556;28;20461;-83
2023/12/05 00:23:04;;;;;;;1.60;1.33;;;3.60;98.20;;;;;;5085988;28;20507;-82
2023/12/05 00:25:32;;;;;;;1.63;1.40;;;3.60;98.20;;;;;;5069894;28;20484;-83
2023/12/05 00:27:59;;;;;;;1.60;1.40;;;3.60;98.20;;;;;;5086791;28;21077;-82
2023/12/05 00:30:26;;;;;;;1.63;1.43;;;3.60;98.20;;;;;;5072523;28;20476;-83
2023/12/05 00:32:53;;;;;;;1.60;1.40;;;3.60;98.20;;;;;;5072481;28;20481;-83
2023/12/05 00:35:19;;;;;;;1.63;1.40;;;3.60;98.20;;;;;;5072139;28;20938;-83
2023/12/05 00:37:46;;;;;;;1.60;1.40;;;3.60;98.20;;;;;;5091013;28;20576;-84
2023/12/05 00:40:14;;;;;;;1.70;1.40;;;3.70;98.20;;;;;;5070577;28;20476;-83
2023/12/05 00:42:42;;;;;;;1.60;1.40;;;3.60;98.20;;;;;;5070945;28;20482;-84
2023/12/05 00:45:21;;;;;;;1.60;1.43;;;3.60;98.20;;;;;;5074373;28;20565;-83
2023/12/05 00:47:49;;;;;;;1.70;1.50;;;3.70;98.20;;;;;;5067322;28;20485;-85
2023/12/05 00:50:17;;;;;;;1.60;1.40;;;3.70;98.20;;;;;;5069787;28;20547;-84
2023/12/05 00:52:47;;;;;;;1.60;1.30;;;3.70;98.20;;;;;;5047168;28;20482;-84
2023/12/05 00:55:15;;;;;;;1.67;1.40;;;3.70;98.20;;;;;;5041136;28;20486;-84
2023/12/05 00:57:43;;;;;;;4.40;4.07;;;3.70;98.20;;;;;;5051592;28;20515;-84
2023/12/05 01:00:11;;;;;;;1.70;1.50;;;3.70;98.20;;;;;;5048614;28;20471;-83
2023/12/05 01:02:38;;;;;;;1.60;1.40;;;3.70;98.20;;;;;;5047203;28;20937;-83
2023/12/05 01:05:08;;;;;;;1.60;1.40;;;3.70;98.20;;;;;;5053768;28;20481;-83
2023/12/05 01:07:35;;;;;;;1.67;1.40;;;3.70;98.20;;;;;;5059730;28;20540;-83
2023/12/05 01:10:02;;;;;;;1.60;1.30;;;3.70;98.20;;;;;;5059108;28;20641;-82
2023/12/05 01:12:29;;;;;;;1.70;1.50;;;3.70;98.20;;;;;;5058260;28;20509;-83
2023/12/05 01:14:57;;;;;;;1.60;1.33;;;3.70;98.20;;;;;;5058920;28;20494;-83
2023/12/05 01:17:24;;;;;;;1.63;1.40;;;3.70;98.20;;;;;;5068989;28;20551;-82
2023/12/05 01:19:50;;;;;;;1.70;1.40;;;3.70;98.20;;;;;;5064025;28;20466;-83
2023/12/05 01:22:17;;;;;;;1.70;1.50;;;3.70;98.20;;;;;;5064770;28;20534;-82
2023/12/05 01:24:44;;;;;;;2.27;2.07;;;3.80;98.20;;;;;;5061018;28;20513;-82
2023/12/05 01:27:11;;;;;;;1.60;1.40;;;3.80;98.20;;;;;;5069264;28;20512;-82
2023/12/05 01:29:37;;;;;;;1.63;1.40;;;3.80;98.20;;;;;;5070429;28;20505;-82
2023/12/05 01:32:06;;;;;;;1.70;1.50;;;3.80;98.20;;;;;;5052352;28;20895;-82
2023/12/05 01:34:33;;;;;;;1.60;1.40;;;3.80;98.20;;;;;;5071478;28;20709;-82
2023/12/05 01:37:00;;;;;;;1.60;1.30;;;3.80;98.20;;;;;;5062762;28;23310;-83
2023/12/05 01:39:26;;;;;;;1.70;1.50;;;3.80;98.20;;;;;;5082878;28;20472;-83
2023/12/05 01:41:53;;;;;;;1.60;1.40;;;3.80;98.20;;;;;;5070841;28;20490;-83
2023/12/05 01:44:20;;;;;;;1.70;1.40;;;3.80;98.20;;;;;;5069260;28;20467;-84
2023/12/05 01:46:47;;;;;;;1.63;1.30;;;3.90;98.20;;;;;;5062079;28;20476;-85
2023/12/05 01:49:17;;;;;;;1.70;1.50;;;3.90;98.20;;;;;;5076429;28;20557;-84
2023/12/05 01:51:45;;;;;;;1.70;1.40;;;3.90;98.20;;;;;;5061115;28;20493;-85
2023/12/05 01:54:18;;;;;;;2.87;2.60;;;3.90;98.20;;;;;;5069678;28;21010;-85
2023/12/05 01:56:56;;;;;;;1.63;1.40;;;3.90;98.20;;;;;;5064224;28;20541;-85
2023/12/05 01:59:29;;;;;;;1.67;1.40;;;3.90;98.20;;;;;;5065411;28;20464;-84
2023/12/05 02:02:09;;;;;;;1.60;1.40;;;3.90;98.20;;;;;;5042429;28;20470;-85
2023/12/05 02:04:45;;;;;;;1.60;1.30;;;3.90;98.20;;;;;;5043916;28;20450;-85
2023/12/05 02:07:14;;;;;;;1.70;1.50;;;3.90;98.20;;;;;;5046084;28;20484;-85
2023/12/05 02:09:40;;;;;;;1.60;1.37;;;3.90;98.20;;;;;;5050027;28;20459;-87
2023/12/05 02:12:07;;;;;;;1.70;1.50;;;3.90;98.20;;;;;;5037087;28;20987;-85
2023/12/05 02:14:35;;;;;;;1.67;1.40;;;3.90;98.20;;;;;;5045561;28;20485;-85
2023/12/05 02:17:11;;;;;;;1.70;1.40;;;3.90;98.20;;;;;;5043965;28;20481;-86
2023/12/05 02:20:04;;;;;;;1.67;1.37;;;3.90;98.20;;;;;;5051618;28;20834;-85
2023/12/05 02:22:54;;;;;;;1.70;1.60;;;4.00;98.20;;;;;;5046906;28;21059;-85
2023/12/05 02:25:32;;;;;;;1.63;1.37;;;4.00;98.20;;;;;;5049213;28;20536;-85
2023/12/05 02:28:02;;;;;;;1.60;1.30;;;4.00;98.20;;;;;;5053532;28;20514;-85
2023/12/05 02:30:28;;;;;;;1.60;1.30;;;4.00;98.20;;;;;;5049996;28;20454;-83
2023/12/05 02:32:55;;;;;;;1.63;1.40;;;4.00;98.20;;;;;;5046914;28;21030;-82
2023/12/05 02:35:23;;;;;;;1.60;1.30;;;4.00;98.20;;;;;;5040198;28;20486;-82
2023/12/05 02:37:57;;;;;;;1.70;1.40;;;4.00;98.20;;;;;;5056482;28;20490;-83
2023/12/05 02:40:30;;;;;;;1.70;1.40;;;4.00;98.20;;;;;;5053531;28;20747;-83
2023/12/05 02:42:58;;;;;;;1.60;1.40;;;4.00;98.20;;;;;;5061732;28;20531;-83
2023/12/05 02:45:30;;;;;;;1.67;1.40;;;4.00;98.20;;;;;;5035679;28;20484;-82
2023/12/05 02:47:58;;;;;;;1.60;1.30;;;4.10;98.20;;;;;;5052830;28;20480;-83
2023/12/05 02:50:25;;;;;;;1.67;1.40;;;4.10;98.20;;;;;;5039843;28;20463;-82
2023/12/05 02:52:52;;;;;;;1.60;1.30;;;4.10;98.20;;;;;;5060888;28;20880;-81
2023/12/05 02:55:19;;;;;;;1.70;1.50;;;4.10;98.20;;;;;;5036763;28;20483;-82
2023/12/05 02:57:46;;;;;;;1.63;1.30;;;4.10;98.20;;;;;;5064300;28;20477;-82
2023/12/05 03:00:13;;;;;;;1.60;1.30;;;4.10;98.20;;;;;;5057673;28;20455;-82
2023/12/05 03:02:41;;;;;;;1.60;1.37;;;4.20;98.20;;;;;;5063734;28;20934;-82
2023/12/05 03:05:09;;;;;;;1.70;1.50;;;4.20;98.20;;;;;;5053709;28;20842;-82
2023/12/05 03:07:36;;;;;;;1.60;1.30;;;4.20;98.20;;;;;;5057267;28;20482;-82
2023/12/05 03:10:04;;;;;;;1.70;1.57;;;4.20;98.20;;;;;;5055488;28;20466;-83
2023/12/05 03:12:33;;;;;;;2.67;2.47;;;4.20;98.20;;;;;;5043127;28;20532;-82
2023/12/05 03:15:00;;;;;;;3.10;2.90;;;4.20;98.20;;;;;;5036810;28;20549;-82
2023/12/05 03:17:26;;;;;;;1.70;1.40;;;4.20;98.20;;;;;;5038137;28;20473;-81
2023/12/05 03:19:55;;;;;;;1.60;1.30;;;4.20;98.20;;;;;;5038309;28;20463;-82
2023/12/05 03:22:21;;;;;;;1.60;1.30;;;4.30;98.20;;;;;;5036972;28;20682;-82
2023/12/05 03:24:50;;;;;;;1.70;1.57;;;4.30;98.20;;;;;;5037040;28;20459;-82
2023/12/05 03:27:16;;;;;;;1.60;1.37;;;4.30;98.20;;;;;;5037947;28;20474;-82
2023/12/05 03:29:43;;;;;;;1.60;1.30;;;4.30;98.20;;;;;;5039421;28;20463;-83
2023/12/05 03:32:12;;;;;;;1.60;1.40;;;4.30;98.20;;;;;;5046418;28;20477;-83
2023/12/05 03:34:39;;;;;;;1.70;1.40;;;4.30;98.20;;;;;;5044415;28;20541;-83
2023/12/05 03:37:07;;;;;;;2.53;2.33;;;4.30;98.20;;;;;;5041229;28;20478;-85
2023/12/05 03:39:34;;;;;;;1.63;1.43;;;4.30;98.20;;;;;;5052507;28;20745;-83
2023/12/05 03:42:01;;;;;;;1.70;1.50;;;4.40;98.20;;;;;;5047561;28;20866;-85
2023/12/05 03:44:28;;;;;;;2.60;2.40;;;4.40;98.20;;;;;;5053472;28;20549;-83
2023/12/05 03:46:55;;;;;;;1.60;1.30;;;4.40;98.20;;;;;;5047582;28;20555;-84
2023/12/05 03:49:21;;;;;;;1.60;1.40;;;4.40;98.20;;;;;;5053989;28;20538;-83
2023/12/05 03:51:48;;;;;;;1.60;1.30;;;4.40;98.20;;;;;;5039198;28;20482;-83
2023/12/05 03:54:16;;;;;;;1.60;1.30;;;4.40;98.20;;;;;;5039998;28;20491;-83
2023/12/05 03:56:43;;;;;;;1.63;1.30;;;4.50;98.20;;;;;;5029774;28;20486;-83
2023/12/05 03:59:10;;;;;;;1.60;1.30;;;4.50;98.20;;;;;;5036587;28;20461;-83
2023/12/05 04:01:37;;;;;;;1.60;1.30;;;4.50;98.20;;;;;;5026872;28;20552;-83
2023/12/05 04:04:04;;;;;;;1.67;1.33;;;4.50;98.20;;;;;;5035325;28;20974;-83
2023/12/05 04:06:30;;;;;;;1.63;1.40;;;4.50;98.20;;;;;;5020113;28;20493;-84
2023/12/05 04:08:57;;;;;;;1.67;1.30;;;4.60;98.20;;;;;;5048120;28;20481;-83
2023/12/05 04:11:33;;;;;;;1.67;1.30;;;4.60;98.20;;;;;;5041917;28;20543;-83
2023/12/05 04:14:02;;;;;;;1.60;1.40;;;4.60;98.20;;;;;;5053486;28;20854;-84
2023/12/05 04:16:29;;;;;;;3.20;2.23;;;4.70;98.20;;;;;;5036630;28;20573;-83
2023/12/05 04:18:56;;;;;;;2.37;2.17;;;4.70;98.20;;;;;;5040508;28;20497;-83
2023/12/05 04:21:25;;;;;;;1.63;1.30;;;4.70;98.20;;;;;;5047485;28;20847;-83
2023/12/05 04:23:52;;;;;;;1.60;1.30;;;4.80;98.20;;;;;;5068807;28;20878;-83
2023/12/05 04:26:21;;;;;;;1.60;1.30;;;4.80;98.20;;;;;;5043571;28;20531;-83
2023/12/05 04:28:49;;;;;;;1.70;1.30;;;4.80;98.20;;;;;;5056549;28;20469;-83
2023/12/05 04:31:16;;;;;;;1.67;1.30;;;4.80;98.20;;;;;;5038108;28;20573;-83
2023/12/05 04:33:43;;;;;;;1.70;1.40;;;4.80;98.20;;;;;;5051156;28;20480;-83
2023/12/05 04:36:11;;;;;;;1.60;1.30;;;4.90;98.20;;;;;;5037018;28;20665;-82
2023/12/05 04:38:39;;;;;;;4.40;3.30;;;4.90;98.20;;;;;;5052446;28;20462;-82
2023/12/05 04:41:06;;;;;;;1.60;1.30;;;4.90;98.20;;;;;;5036966;28;20471;-83
2023/12/05 04:43:33;;;;;;;2.93;2.73;;;4.90;98.20;;;;;;5032869;28;20455;-83
2023/12/05 04:46:08;;;;;;;1.60;1.30;;;4.90;98.20;;;;;;5017233;28;20493;-84
2023/12/05 04:48:35;;;;;;;1.67;1.40;;;5.00;98.20;;;;;;5036891;28;20479;-83
2023/12/05 04:51:04;;;;;;;8.40;3.87;;;5.00;98.20;;;;;;5019137;28;20466;-84
2023/12/05 04:53:31;;;;;;;2.43;2.23;;;5.00;98.20;;;;;;5031219;28;20463;-84
2023/12/05 04:56:03;;;;;;;1.70;1.40;;;5.00;98.20;;;;;;5019367;28;20545;-83
2023/12/05 04:58:30;;;;;;;1.63;1.40;;;5.00;98.20;;;;;;5058039;28;20899;-84
2023/12/05 05:00:57;;;;;;;1.63;1.40;;;5.10;98.20;;;;;;5034867;28;20474;-83
2023/12/05 05:03:26;;;;;;;1.70;1.40;;;5.10;98.20;;;;;;5037456;28;20770;-83
2023/12/05 05:06:25;;;;;;;1.70;1.40;;;5.10;98.20;;;;;;5018947;28;20483;-84
2023/12/05 05:08:52;;;;;;;1.60;1.40;;;5.20;98.20;;;;;;5012548;28;20497;-84
2023/12/05 05:11:19;;;;;;;1.63;1.30;;;5.20;98.20;;;;;;5036032;28;20520;-83
2023/12/05 05:13:46;;;;;;;1.63;1.30;;;5.20;98.20;;;;;;5031763;28;20463;-83
2023/12/05 05:16:14;;;;;;;1.60;1.30;;;5.20;98.20;;;;;;5021073;28;21946;-83
2023/12/05 05:18:42;;;;;;;1.70;1.50;;;5.30;98.20;;;;;;5030330;28;20463;-83
2023/12/05 05:21:09;;;;;;;1.60;1.30;;;5.30;98.20;;;;;;5014910;28;20478;-83
2023/12/05 05:23:35;;;;;;;1.60;1.40;;;5.30;98.20;;;;;;5040722;28;20996;-83
2023/12/05 05:26:03;;;;;;;1.60;1.30;;;5.30;98.20;;;;;;5018846;28;20475;-83
2023/12/05 05:28:29;;;;;;;1.67;1.40;;;5.30;98.20;;;;;;5041067;28;20535;-83
2023/12/05 05:30:58;;;;;;;1.70;1.37;;;5.30;98.20;;;;;;5020133;28;20467;-83
2023/12/05 05:33:25;;;;;;;1.60;1.30;;;5.40;98.20;;;;;;5038328;28;20467;-83
2023/12/05 05:35:53;;;;;;;1.60;1.30;;;5.40;98.20;;;;;;5019931;28;20582;-83
2023/12/05 05:38:47;;;;;;;1.67;1.43;;;5.40;98.20;;;;;;5043755;28;20942;-84
2023/12/05 05:41:25;;;;;;;1.67;1.30;;;5.40;98.20;;;;;;5011510;28;20608;-84
2023/12/05 05:43:52;;;;;;;1.63;1.37;;;5.40;98.20;;;;;;5036520;28;20469;-84
2023/12/05 05:46:22;;;;;;;1.70;1.40;;;5.40;98.20;;;;;;5018232;28;20494;-83
2023/12/05 05:48:49;;;;;;;1.60;1.40;;;5.40;98.20;;;;;;5038357;28;20489;-84
2023/12/05 05:51:18;;;;;;;1.60;1.30;;;5.50;98.20;;;;;;5026274;28;20577;-84
2023/12/05 05:53:44;;;;;;;1.60;1.30;;;5.50;98.20;;;;;;5047582;28;20535;-83
2023/12/05 05:56:12;;;;;;;1.63;1.40;;;5.50;98.20;;;;;;5029510;28;20481;-83
2023/12/05 05:58:38;;;;;;;1.70;1.40;;;5.50;98.20;;;;;;5042231;28;20483;-83
2023/12/05 06:01:05;;;;;;;1.67;1.37;;;5.50;98.20;;;;;;5027457;28;20463;-82
2023/12/05 06:03:32;;;;;;;1.70;1.40;;;5.50;98.20;;;;;;5048081;28;20471;-82
2023/12/05 06:05:59;;;;;;;1.67;1.40;;;5.60;98.20;;;;;;5026518;28;20558;-82
2023/12/05 06:08:28;;;;;;;1.70;1.40;;;5.60;98.20;;;;;;5046880;28;20502;-82
2023/12/05 06:10:54;;;;;;;1.60;1.30;;;5.60;98.20;;;;;;5019875;28;20463;-82
2023/12/05 06:13:21;;;;;;;1.67;1.40;;;5.60;98.20;;;;;;5045731;28;20474;-82
2023/12/05 06:15:48;;;;;;;1.60;1.30;;;5.60;98.20;;;;;;5027617;28;20577;-83
2023/12/05 06:18:15;;;;;;;1.60;1.30;;;5.60;98.20;;;;;;5038795;28;20486;-84
2023/12/05 06:20:43;;;;;;;1.60;1.30;;;5.70;98.20;;;;;;5025104;28;20880;-84
2023/12/05 06:23:20;;;;;;;1.60;1.30;;;5.70;98.20;;;;;;5037191;28;20480;-84
2023/12/05 06:25:49;;;;;;;1.67;1.30;;;5.70;98.20;;;;;;5024285;28;21024;-84
2023/12/05 06:28:15;;;;;;;1.60;1.30;;;5.70;98.20;;;;;;5039440;28;20475;-84
2023/12/05 06:30:42;;;;;;;1.70;1.40;;;5.80;98.20;;;;;;5025467;28;20485;-84
2023/12/05 06:33:09;;;;;;;1.67;1.30;;;5.80;98.20;;;;;;5027438;28;20483;-84
2023/12/05 06:35:36;;;;;;;1.60;1.30;;;5.80;98.20;;;;;;5024366;28;20495;-84
2023/12/05 06:38:03;;;;;;;1.60;1.30;;;5.80;98.20;;;;;;5031482;28;20581;-84
2023/12/05 06:40:30;;;;;;;1.60;1.30;;;5.90;98.20;;;;;;5028956;28;20502;-84
2023/12/05 06:42:58;;;;;;;1.67;1.30;;;5.90;98.20;;;;;;5029443;28;20575;-84
2023/12/05 06:45:25;;;;;;;1.60;1.30;;;5.90;98.20;;;;;;5024745;28;20549;-83
2023/12/05 06:47:52;;;;;;;1.93;1.73;;;5.90;98.20;;;;;;5031421;28;20524;-83
2023/12/05 06:50:19;;;;;;;1.60;1.30;;;6.00;98.20;;;;;;5030579;28;20459;-83
2023/12/05 06:52:46;;;;;;;1.70;1.40;;;6.00;98.20;;;;;;5033332;28;20482;-84
2023/12/05 06:55:13;;;;;;;1.70;1.30;;;6.00;98.20;;;;;;5030574;28;20549;-84
2023/12/05 06:57:39;;;;;;;1.60;1.30;;;6.00;98.20;;;;;;5031447;28;20486;-83
2023/12/05 07:00:11;;;;;;;1.67;1.30;;;6.00;98.20;;;;;;5028555;28;20463;-84
2023/12/05 07:02:38;;;;;;;1.60;1.30;;;6.00;98.20;;;;;;5026981;28;20513;-84
2023/12/05 07:05:18;;;;;;;1.60;1.30;;;6.00;98.20;;;;;;5026325;28;20507;-84
2023/12/05 07:07:45;;;;;;;1.60;1.30;;;6.10;98.20;;;;;;5022561;28;20520;-84
2023/12/05 07:10:12;;;;;;;1.67;1.30;;;6.10;98.20;;;;;;5026347;28;20474;-83
2023/12/05 07:12:41;;;;;;;1.63;1.23;;;6.10;98.20;;;;;;5024107;28;20544;-84
2023/12/05 07:15:11;;;;;;;2.73;2.53;;;6.10;98.20;;;;;;5022595;28;20994;-84
2023/12/05 07:17:38;;;;;;;2.43;2.23;;;6.10;98.20;;;;;;5022517;28;20483;-84
2023/12/05 07:20:07;;;;;;;1.63;1.30;;;6.10;98.20;;;;;;5021672;28;20507;-84
2023/12/05 07:22:35;;;;;;;2.27;2.07;;;6.10;98.20;;;;;;5024734;28;20489;-83
2023/12/05 07:25:02;;;;;;;1.70;1.60;;;6.20;98.20;;;;;;5023177;28;20494;-84
2023/12/05 07:27:29;;;;;;;1.63;1.30;;;6.20;98.20;;;;;;5024173;28;20667;-84
2023/12/05 07:29:56;;;;;;;1.63;1.30;;;6.20;98.20;;;;;;5023376;28;20464;-84
2023/12/05 07:32:25;;;;;;;1.63;1.23;;;6.20;98.20;;;;;;5025568;28;20559;-84
2023/12/05 07:34:52;;;;;;;1.60;1.30;;;6.20;98.20;;;;;;5028009;28;20483;-82
2023/12/05 07:37:19;;;;;;;1.60;1.30;;;6.20;98.20;;;;;;5023084;28;20998;-81
2023/12/05 07:39:46;;;;;;;1.60;1.30;;;6.10;98.20;;;;;;5024554;28;20524;-81
2023/12/05 07:42:13;;;;;;;1.60;1.20;;;6.10;98.20;;;;;;5020066;28;21057;-82
2023/12/05 07:44:40;;;;;;;1.60;1.30;;;6.20;98.20;;;;;;5024749;28;20557;-82
2023/12/05 07:47:08;;;;;;;1.60;1.30;;;6.20;98.20;;;;;;5020976;28;20557;-82
2023/12/05 07:49:36;;;;;;;1.60;1.20;;;6.20;98.20;;;;;;5022876;28;20564;-82
2023/12/05 07:52:04;;;;;;;1.63;1.30;;;6.30;98.20;;;;;;5018525;28;20482;-82
2023/12/05 07:54:32;;;;;;;1.70;1.30;;;6.30;98.20;;;;;;5029070;28;20467;-82
2023/12/05 07:56:59;;;;;;;1.70;1.43;;;6.40;98.20;;;;;;5016978;28;20483;-82
2023/12/05 07:59:26;;;;;;;1.70;1.30;;;6.40;98.20;;;;;;5023622;28;20507;-81
2023/12/05 08:01:54;;;;;;;1.63;1.20;;;6.50;98.20;;;;;;5021822;28;20487;-82
2023/12/05 08:04:21;;;;;;;1.67;1.30;;;6.50;98.20;;;;;;5030083;28;20555;-82
2023/12/05 08:06:50;;;;;;;1.67;1.30;;;6.60;98.20;;;;;;5022217;28;20486;-83
2023/12/05 08:09:17;;;;;;;1.60;1.20;;;6.60;98.20;;;;;;5030646;28;20463;-82
2023/12/05 08:11:44;;;;;;;1.63;1.30;;;6.60;98.20;;;;;;5018312;28;20474;-83
2023/12/05 08:14:12;;;;;;;1.60;1.27;;;6.60;98.20;;;;;;5027141;28;20463;-82
2023/12/05 08:16:41;;;;;;;1.60;1.30;;;6.70;98.20;;;;;;5020290;28;21034;-83
2023/12/05 08:19:09;;;;;;;1.60;1.30;;;6.70;98.20;;;;;;5029919;28;20468;-83
2023/12/05 08:21:36;;;;;;;1.60;1.30;;;6.70;98.20;;;;;;5016353;28;20911;-82
2023/12/05 08:24:05;;;;;;;1.60;1.30;;;6.70;98.20;;;;;;5030377;28;20467;-82
2023/12/05 08:26:33;;;;;;;1.60;1.30;;;6.80;98.20;;;;;;5019706;28;20543;-83
2023/12/05 08:29:00;;;;;;;1.70;1.40;;;6.80;98.20;;;;;;5030585;28;20467;-83
2023/12/05 08:31:28;;;;;;;1.60;1.20;;;6.80;98.20;;;;;;5015408;28;20567;-83
2023/12/05 08:33:56;;;;;;;1.60;1.30;;;6.90;98.20;;;;;;5029955;28;21277;-84
2023/12/05 08:36:23;;;;;;;1.63;1.30;;;6.90;98.20;;;;;;5014911;28;20824;-83
2023/12/05 08:38:50;;;;;;;1.63;1.20;;;6.90;98.20;;;;;;5031185;28;20792;-84
2023/12/05 08:41:19;;;;;;;1.60;1.30;;;6.90;98.20;;;;;;5018632;28;20492;-82
2023/12/05 08:43:47;;;;;;;1.63;1.20;;;6.90;98.20;;;;;;5031283;28;20558;-84
2023/12/05 08:46:14;;;;;;;1.60;1.30;;;6.90;98.20;;;;;;5013090;28;20486;-83
2023/12/05 08:48:42;;;;;;;1.60;1.20;;;6.90;98.20;;;;;;5027552;28;20478;-84
2023/12/05 08:51:12;;;;;;;1.60;1.30;;;6.90;98.20;;;;;;5015243;28;20879;-84
2023/12/05 08:54:01;;;;;;;1.70;1.40;;;7.00;98.20;;;;;;5027557;28;20463;-86
2023/12/05 08:56:43;;;;;;;;;;;;;;;;;;;;;
2023/12/05 08:59:16;;;;;;;1.60;1.23;;;7.00;98.20;;;;;;5020161;28;20463;-86
2023/12/05 09:01:51;;;;;;;1.60;1.30;;;7.00;98.20;;;;;;5018604;28;20864;-86
2023/12/05 09:04:30;;;;;;;1.67;1.30;;;7.10;98.20;;;;;;5026225;28;20465;-86
2023/12/05 09:07:11;;;;;;;1.60;1.30;;;7.10;98.20;;;;;;5019155;28;20514;-86
2023/12/05 09:09:48;;;;;;;1.60;1.20;;;7.10;98.20;;;;;;5024894;28;20494;-86
2023/12/05 09:12:25;;;;;;;1.63;1.27;;;7.10;98.20;;;;;;5017620;28;20565;-85
2023/12/05 09:14:55;;;;;;;1.60;1.30;;;7.10;98.20;;;;;;5023024;28;20477;-85
2023/12/05 09:17:41;;;;;;;2.00;1.80;;;7.10;98.20;;;;;;5017642;28;20478;-85
2023/12/05 09:20:10;;;;;;;1.60;1.20;;;7.20;98.20;;;;;;5023872;28;20463;-85
2023/12/05 09:22:38;;;;;;;1.70;1.30;;;7.20;98.20;;;;;;5009231;28;20488;-84
2023/12/05 09:25:11;;;;;;;1.63;1.20;;;7.20;98.20;;;;;;5026595;28;20934;-85
2023/12/05 09:27:45;;;;;;;1.70;1.30;;;7.20;98.20;;;;;;5023761;28;20487;-86
2023/12/05 09:30:13;;;;;;;1.67;1.30;;;7.20;98.20;;;;;;5023994;28;20554;-85
2023/12/05 09:32:40;;;;;;;1.63;1.20;;;7.20;98.20;;;;;;5029378;28;20490;-84
2023/12/05 09:35:10;;;;;;;1.60;1.20;;;7.20;98.20;;;;;;5028351;28;20865;-85
2023/12/05 09:37:44;;;;;;;1.60;1.30;;;7.30;98.20;;;;;;5034847;28;20848;-85
2023/12/05 09:40:12;;;;;;;1.63;1.30;;;7.30;98.20;;;;;;5028508;28;20470;-85
2023/12/05 09:42:45;;;;;;;2.97;2.00;;;7.30;98.20;;;;;;5028271;28;21023;-85
2023/12/05 09:45:46;;;;;;;1.60;1.30;;;7.30;98.20;;;;;;5049188;23;20486;-86
2023/12/05 09:48:17;;;;;;;1.60;1.20;;;7.30;98.20;;;;;;5041939;28;20568;-83
2023/12/05 09:50:45;;;;;;;1.63;1.30;;;7.30;98.20;;;;;;5068927;28;20468;-82
2023/12/05 09:53:14;;;;;;;1.70;1.37;;;7.30;98.20;;;;;;5050459;28;21087;-81
2023/12/05 09:55:42;;;;;;;1.60;1.20;;;7.40;98.20;;;;;;5080885;28;20508;-82
2023/12/05 09:58:12;;;;;;;1.67;1.30;;;7.30;98.20;;;;;;5067934;28;20554;-83
2023/12/05 10:00:39;;;;;;;1.67;1.20;;;7.30;98.20;;;;;;5072697;28;20835;-82
2023/12/05 10:03:07;;;;;;;1.63;1.20;;;7.40;98.20;;;;;;5047542;28;20529;-82
2023/12/05 10:06:11;;;;;;;1.60;1.30;;;7.40;98.20;;;;;;5060709;28;20553;-84
2023/12/05 10:08:39;;;;;;;1.60;1.20;;;7.40;98.20;;;;;;5047917;28;20469;-81
2023/12/05 10:11:08;;;;;;;1.60;1.20;;;7.40;98.20;;;;;;5056062;28;20467;-82
2023/12/05 10:13:41;;;;;;;1.60;1.20;;;7.40;98.20;;;;;;5058915;28;20519;-81
2023/12/05 10:16:09;;;;;;;1.60;1.20;;;7.40;98.20;;;;;;5048388;28;21339;-82
2023/12/05 10:18:39;;;;;;;1.70;1.40;;;7.40;98.20;;;;;;5048362;28;20487;-81
2023/12/05 10:21:09;;;;;;;1.63;1.30;;;7.40;98.20;;;;;;5025225;28;20473;-82
2023/12/05 10:23:41;;;;;;;1.60;1.27;;;7.40;98.20;;;;;;5034464;28;20459;-81
2023/12/05 10:26:09;;;;;;;1.60;1.23;;;7.40;98.20;;;;;;5025756;28;20877;-81
2023/12/05 10:28:51;;;;;;;1.70;1.30;;;7.40;98.20;;;;;;5049075;28;20467;-81
2023/12/05 10:31:19;;;;;;;1.60;1.20;;;7.50;98.20;;;;;;5030473;28;20529;-81
2023/12/05 10:33:48;;;;;;;1.60;1.20;;;7.50;98.20;;;;;;5041354;28;21000;-82
2023/12/05 10:36:15;;;;;;;1.60;1.30;;;7.50;98.20;;;;;;5032052;28;20473;-82
2023/12/05 10:38:47;;;;;;;1.60;1.20;;;7.50;98.20;;;;;;5038511;28;20459;-81
2023/12/05 10:41:29;;;;;;;1.60;1.20;;;7.50;98.20;;;;;;5030383;28;20557;-82
2023/12/05 10:44:02;;;;;;;1.63;1.23;;;7.50;98.20;;;;;;5035266;28;20463;-82
2023/12/05 10:46:30;;;;;;;1.60;1.20;;;7.50;98.20;;;;;;5037012;28;20984;-82
2023/12/05 10:48:57;;;;;;;1.60;1.20;;;7.50;98.20;;;;;;5064761;28;20461;-81
2023/12/05 10:51:28;;;;;;;1.60;1.20;;;7.50;98.20;;;;;;5050174;28;20509;-82
2023/12/05 10:53:57;;;;;;;1.67;1.23;;;7.50;98.20;;;;;;5068503;28;20457;-82
2023/12/05 10:56:28;;;;;;;1.60;1.20;;;7.50;98.20;;;;;;5055619;28;20510;-83
2023/12/05 10:59:01;;;;;;;1.60;1.30;;;7.60;98.20;;;;;;5049633;28;20531;-82
2023/12/05 11:01:28;;;;;;;1.63;1.20;;;7.60;98.20;;;;;;5022903;28;20534;-82
2023/12/05 11:04:00;;;;;;;1.63;1.20;;;7.60;98.20;;;;;;5043401;28;20459;-82
2023/12/05 11:06:28;;;;;;;1.60;1.20;;;7.60;98.20;;;;;;5042989;28;20472;-82
2023/12/05 11:09:00;;;;;;;1.67;1.20;;;7.60;98.20;;;;;;5064555;28;20470;-82
2023/12/05 11:30:59;;;;;;;1.63;1.20;;;7.70;98.20;;;;;;4957620;28;20483;-83
2023/12/05 11:34:04;;;;;;;12.50;4.23;;;7.80;98.20;;;;;;4959150;28;20577;-83
2023/12/05 11:43:44;;;;;;;1.60;1.23;;;7.80;98.20;;;;;;5004739;28;20562;-82
2023/12/05 11:48:52;;;;;;;1.60;1.20;;;7.90;98.20;;;;;;4276461;26;20478;-81
2023/12/05 11:51:19;;;;;;;1.60;1.20;;;7.90;98.20;;;;;;5043590;28;20947;-80
2023/12/05 11:53:46;;;;;;;1.60;1.20;;;7.90;98.20;;;;;;5059873;28;20485;-80
2023/12/05 11:56:20;;;;;;;1.60;1.10;;;7.80;98.20;;;;;;5040467;28;20540;-81
2023/12/05 11:59:18;;;;;;;1.60;1.20;;;7.80;98.20;;;;;;5059457;28;20466;-81
2023/12/05 12:01:52;;;;;;;1.60;1.20;;;7.80;98.20;;;;;;5046693;28;20533;-81
2023/12/05 12:04:28;;;;;;;1.60;1.10;;;7.80;98.20;;;;;;5054333;28;20442;-81
2023/12/05 12:07:03;;;;;;;1.60;1.20;;;7.80;98.20;;;;;;5045156;28;20555;-81
2023/12/05 12:09:43;;;;;;;1.60;1.20;;;7.80;98.20;;;;;;5048675;28;20458;-81
2023/12/05 12:15:23;;;;;;;1.60;1.17;;;7.90;98.20;;;;;;5035785;28;20567;-82
2023/12/05 12:18:39;;;;;;;1.60;1.20;;;7.90;98.20;;;;;;5045130;28;20482;-81
2023/12/05 12:21:09;;;;;;;1.60;1.20;;;7.90;98.20;;;;;;5006802;28;20465;-80
2023/12/05 12:23:38;;;;;;;2.07;1.87;;;7.90;98.20;;;;;;5042287;28;20466;-82
2023/12/05 12:32:56;;;;;;;1.60;1.20;;;7.90;98.20;;;;;;5003597;28;20571;-82
2023/12/05 12:35:50;;;;;;;1.60;1.20;;;7.90;98.20;;;;;;5061889;28;20490;-83
2023/12/05 12:38:19;;;;;;;1.60;1.20;;;7.90;98.20;;;;;;5056748;28;20478;-82
2023/12/05 12:40:48;;;;;;;1.60;1.20;;;7.90;98.20;;;;;;5057176;28;20474;-81
2023/12/05 12:43:22;;;;;;;1.60;1.20;;;7.90;98.20;;;;;;5036855;28;20649;-83
2023/12/05 12:45:50;;;;;;;1.60;1.20;;;7.80;98.20;;;;;;5023954;28;20484;-81
2023/12/05 12:48:17;;;;;;;1.63;1.20;;;7.80;98.20;;;;;;5068283;28;20531;-82
2023/12/05 12:50:48;;;;;;;1.60;1.13;;;7.80;98.20;;;;;;5060283;28;20455;-82
2023/12/05 12:53:29;;;;;;;1.70;1.30;;;7.80;98.20;;;;;;5046767;28;20564;-81
2023/12/05 12:55:57;;;;;;;1.63;1.20;;;7.70;98.20;;;;;;5048160;28;20513;-80
2023/12/05 12:59:04;;;;;;;1.60;1.20;;;7.70;98.20;;;;;;5072716;28;20467;-82
2023/12/05 13:01:42;;;;;;;1.70;1.33;;;7.70;98.20;;;;;;5040223;28;20489;-82
2023/12/05 13:04:14;;;;;;;1.60;1.10;;;7.70;98.20;;;;;;5060663;28;21104;-82
2023/12/05 13:06:45;;;;;;;1.60;1.20;;;7.70;98.20;;;;;;5044747;28;20474;-82
2023/12/05 13:09:16;;;;;;;1.60;1.30;;;7.70;98.20;;;;;;5045416;28;20454;-83
2023/12/05 13:11:48;;;;;;;1.60;1.20;;;7.70;98.20;;;;;;5036601;28;20483;-83
2023/12/05 13:14:28;;;;;;;1.60;1.10;;;7.70;98.20;;;;;;5053778;28;20516;-82
2023/12/05 13:16:57;;;;;;;1.60;1.20;;;7.70;98.20;;;;;;5043763;28;20554;-82
2023/12/05 13:19:30;;;;;;;1.60;1.20;;;7.70;98.20;;;;;;5051759;28;20575;-83
2023/12/05 13:22:00;;;;;;;1.70;1.30;;;7.70;98.20;;;;;;5046964;28;20883;-82
2023/12/05 13:24:29;;;;;;;1.60;1.20;;;7.70;98.20;;;;;;5053555;28;20464;-82
2023/12/05 13:26:58;;;;;;;1.60;1.30;;;7.70;98.20;;;;;;5042979;28;20534;-82
2023/12/05 13:29:30;;;;;;;1.60;1.10;;;7.60;98.20;;;;;;5049280;28;20501;-84
2023/12/05 13:32:00;;;;;;;1.60;1.20;;;7.60;98.20;;;;;;5045488;28;20510;-81
2023/12/05 13:34:27;;;;;;;1.63;1.20;;;7.60;98.20;;;;;;5050393;28;21217;-82
2023/12/05 13:36:55;;;;;;;1.67;1.30;;;7.60;98.20;;;;;;5045023;28;20512;-80
2023/12/05 13:39:22;;;;;;;1.60;1.20;;;7.60;98.20;;;;;;5049749;28;20584;-81
2023/12/05 13:42:02;;;;;;;1.60;1.20;;;7.60;98.20;;;;;;5046252;28;20552;-81
2023/12/05 13:44:30;;;;;;;1.63;1.20;;;7.60;98.20;;;;;;5051705;28;20462;-82
2023/12/05 13:46:57;;;;;;;1.60;1.30;;;7.60;98.20;;;;;;5047843;28;20572;-81
2023/12/05 13:49:24;;;;;;;1.60;1.23;;;7.60;98.20;;;;;;5049937;28;21522;-81
2023/12/05 13:51:52;;;;;;;1.60;1.13;;;7.50;98.20;;;;;;5047724;28;20485;-81